European Causeway — C6RG7 — position and weather

sailwx.info

Track history (hours):
 
Tides and Currents Weather Stations Pressure Air Temp Water Temp Dewpoint Dewpoint Depression Visibility Wind Speed Wind Dir Waves Ship Positions

European Causeway

Operator: P & O Irish Sea

Last reported at 2017-Jan-23 16:33 UTC. Time now 2017-Jan-23 16:45 UTC.
Position N 54°51' W 005°48'.

Length 165 m; draft 5.5 m.

Type: Passenger vessel. MMSI: 311027000.

Date/timePositionNaut miles runAvg speedWind from/ knotsBaromVisibWave heightAir tempDewpointWater temp
2017-Jan-23 16:33N 54°51' W 005°48'0 0.2
2017-Jan-23 15:30N 54°51' W 005°48'1213.1
2017-Jan-23 14:33N 54°57' W 005°29'1514.1
2017-Jan-23 13:28N 54°59' W 005°03'1 1.4
2017-Jan-23 12:32N 54°58' W 005°01'1212.8
2017-Jan-23 11:33N 55°00' W 005°22'1716.9
2017-Jan-23 10:33N 54°51' W 005°48'1 0.7
2017-Jan-23 09:33N 54°51' W 005°48'1212.1
2017-Jan-23 08:33N 54°57' W 005°29'1514.3
2017-Jan-23 07:29N 54°59' W 005°03'2 1.9
2017-Jan-23 06:27N 54°58' W 005°01'5 5.6
2017-Jan-23 05:29N 55°02' W 005°08'1718.5
2017-Jan-23 04:33N 54°54' W 005°35'8 8.3
2017-Jan-23 03:34N 54°51' W 005°48'0 0.0
2017-Jan-23 02:33N 54°51' W 005°48'0 0.0
2017-Jan-23 01:31N 54°51' W 005°48'4 4.5
2017-Jan-23 00:33N 54°53' W 005°42'1818.1
2017-Jan-22 23:33N 55°01' W 005°13'3 1.3
2017-Jan-22 21:27N 55°02' W 005°08'1618.0
2017-Jan-22 20:33N 54°55' W 005°34'9 9.0
2017-Jan-22 19:33N 54°51' W 005°48'0 0.0
2017-Jan-22 18:34N 54°51' W 005°48'1515.0
2017-Jan-22 17:33N 54°58' W 005°25'1413.7
2017-Jan-22 16:33N 54°58' W 005°01'0 0.2
2017-Jan-22 15:33N 54°58' W 005°01'6 4.9
2017-Jan-22 14:26N 55°02' W 005°08'1617.9
2017-Jan-22 13:34N 54°55' W 005°33'10 9.7
2017-Jan-22 12:33N 54°51' W 005°48'0 0.0
2017-Jan-22 11:33N 54°51' W 005°48'0 0.0
2017-Jan-22 10:33N 54°51' W 005°48'0 0.0
2017-Jan-22 09:33N 54°51' W 005°48'1212.1
2017-Jan-22 08:34N 54°57' W 005°29'1514.3
2017-Jan-22 07:29N 54°59' W 005°03'2 2.0
2017-Jan-22 06:32N 54°58' W 005°01'0 0.0
2017-Jan-22 05:32N 54°58' W 005°01'0 0.0
2017-Jan-22 04:26N 54°58' W 005°01'0 0.0
2017-Jan-22 03:32N 54°58' W 005°01'0 0.0
2017-Jan-22 02:29N 54°58' W 005°01'0 0.0
2017-Jan-22 01:29N 54°58' W 005°01'0 0.0
2017-Jan-22 00:32N 54°58' W 005°01'0 0.0
2017-Jan-21 23:32N 54°58' W 005°01'0 0.0
2017-Jan-21 22:29N 54°58' W 005°01'9 9.9
2017-Jan-21 21:34N 54°59' W 005°17'1818.0
2017-Jan-21 20:34N 54°52' W 005°46'2 1.9
2017-Jan-21 19:31N 54°51' W 005°48'0 0.0
2017-Jan-21 18:33N 54°51' W 005°48'1211.4
2017-Jan-21 17:29N 54°57' W 005°29'1516.0
2017-Jan-21 16:32N 54°59' W 005°03'2 2.2
2017-Jan-21 15:33N 54°58' W 005°01'1110.6
2017-Jan-21 14:33N 54°58' W 005°19'1817.7
2017-Jan-21 13:33N 54°51' W 005°48'0 0.4
2017-Jan-21 12:33N 54°51' W 005°48'1212.1
2017-Jan-21 11:33N 54°57' W 005°30'1615.7
2017-Jan-21 10:33N 54°59' W 005°03'2 1.6
2017-Jan-21 09:34N 54°58' W 005°01'1010.2
2017-Jan-21 08:33N 54°59' W 005°19'1816.9
2017-Jan-21 07:30N 54°52' W 005°47'1 1.0
2017-Jan-21 06:31N 54°51' W 005°48'5 5.4
2017-Jan-21 05:34N 54°53' W 005°40'1817.7
2017-Jan-21 04:34N 55°01' W 005°12'7 7.3
2017-Jan-21 03:32N 54°58' W 005°01'0 0.0
2017-Jan-21 02:29N 54°58' W 005°01'5 5.0
2017-Jan-21 01:29N 55°02' W 005°06'1617.5
2017-Jan-21 00:33N 54°55' W 005°32'10 9.8
2017-Jan-20 23:33N 54°51' W 005°48'0 0.0
2017-Jan-20 22:33N 54°51' W 005°48'4 4.0
2017-Jan-20 21:34N 54°53' W 005°42'1716.9
2017-Jan-20 20:33N 55°00' W 005°16'9 8.9
2017-Jan-20 19:34N 54°58' W 005°01'0 0.0
2017-Jan-20 18:33N 54°58' W 005°01'9 8.9
2017-Jan-20 17:33N 55°00' W 005°16'1818.4
2017-Jan-20 16:33N 54°52' W 005°45'2 2.3
2017-Jan-20 15:33N 54°51' W 005°48'1312.7
2017-Jan-20 14:33N 54°58' W 005°29'1514.9
2017-Jan-20 13:33N 54°59' W 005°03'2 1.8
2017-Jan-20 12:33N 54°58' W 005°01'1110.7
2017-Jan-20 11:33N 54°59' W 005°19'1817.8
2017-Jan-20 10:34N 54°51' W 005°48'1 0.7
2017-Jan-20 09:33N 54°51' W 005°48'1313.5
2017-Jan-20 08:33N 54°58' W 005°28'1514.5
2017-Jan-20 07:33N 54°59' W 005°03'2 1.6
2017-Jan-20 06:33N 54°58' W 005°01'5 4.7
2017-Jan-20 05:30N 55°02' W 005°06'1717.5
2017-Jan-20 04:33N 54°55' W 005°32'10 9.9
2017-Jan-20 03:33N 54°51' W 005°48'0 0.0
2017-Jan-20 02:30N 54°51' W 005°48'5 5.5
2017-Jan-20 01:33N 54°54' W 005°40'1817.7
2017-Jan-20 00:33N 55°02' W 005°13'8 7.2
2017-Jan-19 23:28N 54°58' W 005°01'0 0.0
2017-Jan-19 22:04N 54°58' W 005°01'610.5
2017-Jan-19 21:29N 55°01' W 005°09'1718.9
2017-Jan-19 20:33N 54°54' W 005°37'7 7.1
2017-Jan-19 19:33N 54°51' W 005°48'0 0.0
2017-Jan-19 18:33N 54°51' W 005°48'1313.1
2017-Jan-19 17:33N 54°57' W 005°28'1514.6
2017-Jan-19 16:33N 54°59' W 005°02'1 1.2
2017-Jan-19 15:26N 54°58' W 005°01'1011.8
2017-Jan-19 14:33N 54°58' W 005°19'1818.1
2017-Jan-19 13:33N 54°51' W 005°48'0 0.4
2017-Jan-19 12:33N 54°51' W 005°48'1413.6
2017-Jan-19 11:33N 54°57' W 005°27'1414.5
2017-Jan-19 10:33N 54°58' W 005°02'1 0.9
2017-Jan-19 09:31N 54°58' W 005°01'1010.8
2017-Jan-19 08:33N 54°59' W 005°19'1817.6
2017-Jan-19 07:34N 54°52' W 005°47'1 1.3
2017-Jan-19 06:33N 54°51' W 005°48'6 6.0
2017-Jan-19 05:33N 54°54' W 005°39'1817.6
2017-Jan-19 04:32N 55°02' W 005°11'7 7.0
2017-Jan-19 03:33N 54°58' W 005°01'0 0.0
2017-Jan-19 02:33N 54°58' W 005°01'5 4.8
2017-Jan-19 01:31N 55°02' W 005°07'1819.0
2017-Jan-19 00:33N 54°54' W 005°36'8 7.9
2017-Jan-18 23:33N 54°51' W 005°48'0 0.0
2017-Jan-18 22:33N 54°51' W 005°48'6 5.8
2017-Jan-18 21:31N 54°54' W 005°39'1717.6
2017-Jan-18 20:34N 55°01' W 005°12'7 7.0
2017-Jan-18 19:30N 54°58' W 005°01'0 0.3
2017-Jan-18 18:33N 54°58' W 005°01'1616.4
2017-Jan-18 17:33N 54°56' W 005°30'1211.6
2017-Jan-18 16:33N 54°51' W 005°48'0 0.0
2017-Jan-18 15:34N 54°51' W 005°48'1312.8
2017-Jan-18 14:34N 54°57' W 005°28'1514.6
2017-Jan-18 13:33N 54°59' W 005°03'2 2.0
2017-Jan-18 12:32N 54°58' W 005°01'10 9.9
2017-Jan-18 11:34N 54°59' W 005°18'1818.3
2017-Jan-18 10:33N 54°52' W 005°47'1 1.0
2017-Jan-18 09:33N 54°51' W 005°48'1413.5
2017-Jan-18 08:33N 54°58' W 005°28'1514.7
2017-Jan-18 07:33N 54°59' W 005°02'1 1.2
2017-Jan-18 06:33N 54°58' W 005°01'5 4.9
2017-Jan-18 05:33N 55°02' W 005°06'1717.4
2017-Jan-18 04:33N 54°56' W 005°34'9 9.3
2017-Jan-18 03:33N 54°51' W 005°48'0 0.0
2017-Jan-18 02:34N 54°51' W 005°48'5 5.0
2017-Jan-18 01:33N 54°54' W 005°41'1918.3
2017-Jan-18 00:32N 55°01' W 005°11'7 7.0
2017-Jan-17 23:33N 54°58' W 005°01'0 0.0
2017-Jan-17 22:31N 54°58' W 005°01'5 4.9
2017-Jan-17 21:32N 55°02' W 005°06'1919.2
2017-Jan-17 20:33N 54°54' W 005°36'7 7.4
2017-Jan-17 19:33N 54°51' W 005°48'0 0.0
2017-Jan-17 18:32N 54°51' W 005°48'1212.5
2017-Jan-17 17:34N 54°57' W 005°29'1614.7
2017-Jan-17 16:30N 54°59' W 005°02'1 1.3
2017-Jan-17 15:25N 54°58' W 005°01'1011.6
2017-Jan-17 14:33N 54°59' W 005°18'1817.6
2017-Jan-17 13:30N 54°51' W 005°48'1 0.7
2017-Jan-17 12:33N 54°51' W 005°48'1413.8
2017-Jan-17 11:33N 54°57' W 005°27'1414.3
2017-Jan-17 10:33N 54°58' W 005°02'1 0.5
2017-Jan-17 09:26N 54°58' W 005°01'1011.5
2017-Jan-17 08:34N 54°59' W 005°18'1917.9
2017-Jan-17 07:31N 54°51' W 005°48'0 0.2
2017-Jan-17 06:33N 54°51' W 005°48'3 3.0
2017-Jan-17 05:33N 54°53' W 005°44'1919.3
2017-Jan-17 04:34N 55°01' W 005°14'8 7.9
2017-Jan-17 03:33N 54°58' W 005°01'0 0.0
2017-Jan-17 02:33N 54°58' W 005°01'5 4.9
2017-Jan-17 01:31N 55°02' W 005°07'1819.3
2017-Jan-17 00:34N 54°54' W 005°36'8 7.5
2017-Jan-16 23:33N 54°51' W 005°48'0 0.0
2017-Jan-16 22:33N 54°51' W 005°48'6 5.6
2017-Jan-16 21:34N 54°54' W 005°40'1817.7
2017-Jan-16 20:33N 55°01' W 005°12'7 6.6
2017-Jan-16 19:28N 54°58' W 005°01'0 0.0
2017-Jan-16 18:33N 54°58' W 005°01'1111.1
2017-Jan-16 17:33N 54°58' W 005°20'1717.4
2017-Jan-16 16:34N 54°51' W 005°48'0 0.1
2017-Jan-16 15:33N 54°51' W 005°48'1313.0
2017-Jan-16 14:33N 54°58' W 005°29'1514.7
2017-Jan-16 13:32N 54°59' W 005°03'2 1.7
2017-Jan-16 12:33N 54°58' W 005°01'1010.5
2017-Jan-16 11:33N 54°58' W 005°19'1817.8
2017-Jan-16 10:33N 54°51' W 005°48'0 0.2
2017-Jan-16 09:33N 54°51' W 005°48'1414.1
2017-Jan-16 08:34N 54°58' W 005°26'1313.4
2017-Jan-16 07:33N 54°59' W 005°03'2 1.8
2017-Jan-16 06:32N 54°58' W 005°01'5 5.0
2017-Jan-16 05:32N 55°01' W 005°07'1717.9
2017-Jan-16 04:33N 54°54' W 005°34'9 8.2
2017-Jan-16 03:31N 54°51' W 005°48'0 0.0
2017-Jan-16 02:32N 54°51' W 005°48'0 0.0
2017-Jan-16 01:33N 54°51' W 005°48'5 5.1
2017-Jan-16 00:33N 54°54' W 005°41'1917.8
2017-Jan-15 23:29N 55°01' W 005°10'6 6.8
2017-Jan-15 22:32N 54°58' W 005°01'6 5.7
2017-Jan-15 21:27N 55°02' W 005°09'1617.5
2017-Jan-15 20:33N 54°55' W 005°34'9 8.9
2017-Jan-15 19:33N 54°51' W 005°48'0 0.0
2017-Jan-15 18:33N 54°51' W 005°48'1212.1
2017-Jan-15 17:33N 54°57' W 005°30'1515.0
2017-Jan-15 16:32N 54°59' W 005°03'2 1.9
2017-Jan-15 15:33N 54°58' W 005°01'5 4.9
2017-Jan-15 14:27N 55°02' W 005°08'1617.8
2017-Jan-15 13:33N 54°55' W 005°33'10 8.5
2017-Jan-15 12:25N 54°51' W 005°48'0 0.0
2017-Jan-15 11:31N 54°51' W 005°48'0 0.0
2017-Jan-15 10:28N 54°51' W 005°48'0 0.0
2017-Jan-15 09:33N 54°51' W 005°48'1313.4
2017-Jan-15 08:33N 54°57' W 005°28'1514.6
2017-Jan-15 07:33N 54°59' W 005°02'1 1.2
2017-Jan-15 06:33N 54°58' W 005°01'0 0.0
2017-Jan-15 05:33N 54°58' W 005°01'0 0.0
2017-Jan-15 04:33N 54°58' W 005°01'0 0.0
2017-Jan-15 03:33N 54°58' W 005°01'0 0.0
2017-Jan-15 02:33N 54°58' W 005°01'0 0.0
2017-Jan-15 01:33N 54°58' W 005°01'0 0.0
2017-Jan-15 00:33N 54°58' W 005°01'0 0.0
2017-Jan-14 23:33N 54°58' W 005°01'0 0.0
2017-Jan-14 22:26N 54°58' W 005°01'6 7.0
2017-Jan-14 21:32N 55°01' W 005°10'1818.8
2017-Jan-14 20:33N 54°53' W 005°39'6 5.6
2017-Jan-14 19:33N 54°51' W 005°48'0 0.0
2017-Jan-14 18:33N 54°51' W 005°48'1111.4
2017-Jan-14 17:33N 54°57' W 005°31'1615.8
2017-Jan-14 16:31N 54°59' W 005°03'1 1.5
2017-Jan-14 15:32N 54°58' W 005°01'1010.6
2017-Jan-14 14:33N 54°59' W 005°19'1817.7
2017-Jan-14 13:33N 54°52' W 005°47'1 1.0
2017-Jan-14 12:34N 54°51' W 005°48'1313.5
2017-Jan-14 11:33N 54°58' W 005°28'1514.6
2017-Jan-14 10:34N 54°59' W 005°02'1 1.1
2017-Jan-14 09:33N 54°58' W 005°01'1010.0
2017-Jan-14 08:34N 54°59' W 005°18'1717.0
2017-Jan-14 07:32N 54°52' W 005°46'2 1.5
2017-Jan-14 06:27N 54°51' W 005°48'3 3.6
2017-Jan-14 05:33N 54°53' W 005°43'1919.0
2017-Jan-14 04:33N 55°01' W 005°14'8 7.9
2017-Jan-14 03:33N 54°58' W 005°01'28 7.0
2017-Jan-13 23:33N 54°51' W 005°48'0 0.0
2017-Jan-13 22:33N 54°51' W 005°48'5 4.8
2017-Jan-13 21:32N 54°54' W 005°41'2316.7
2017-Jan-13 20:11N 54°59' W 005°03'2 2.5
2017-Jan-13 19:32N 54°58' W 005°01'1 0.6
2017-Jan-13 18:34N 54°58' W 005°02'1615.8
2017-Jan-13 17:33N 54°56' W 005°29'1212.0
2017-Jan-13 16:33N 54°51' W 005°48'  
Track history (hours):
 
Tides and Currents Weather Stations Pressure Air Temp Water Temp Dewpoint Dewpoint Depression Visibility Wind Speed Wind Dir Waves Ship Positions

European Causeway

Operator: P & O Irish Sea

Last reported at 2017-Jan-23 16:33 UTC. Time now 2017-Jan-23 16:45 UTC.
Position N 54°51' W 005°48'.

Length 165 m; draft 5.5 m.

Type: Passenger vessel. MMSI: 311027000.

Date/timePositionNaut miles runAvg speedWind from/ knotsBaromVisibWave heightAir tempDewpointWater temp
2017-Jan-23 16:33N 54°51' W 005°48'0 0.2
2017-Jan-23 15:30N 54°51' W 005°48'1213.1
2017-Jan-23 14:33N 54°57' W 005°29'1514.1
2017-Jan-23 13:28N 54°59' W 005°03'1 1.4
2017-Jan-23 12:32N 54°58' W 005°01'1212.8
2017-Jan-23 11:33N 55°00' W 005°22'1716.9
2017-Jan-23 10:33N 54°51' W 005°48'1 0.7
2017-Jan-23 09:33N 54°51' W 005°48'1212.1
2017-Jan-23 08:33N 54°57' W 005°29'1514.3
2017-Jan-23 07:29N 54°59' W 005°03'2 1.9
2017-Jan-23 06:27N 54°58' W 005°01'5 5.6
2017-Jan-23 05:29N 55°02' W 005°08'1718.5
2017-Jan-23 04:33N 54°54' W 005°35'8 8.3
2017-Jan-23 03:34N 54°51' W 005°48'0 0.0
2017-Jan-23 02:33N 54°51' W 005°48'0 0.0
2017-Jan-23 01:31N 54°51' W 005°48'4 4.5
2017-Jan-23 00:33N 54°53' W 005°42'1818.1
2017-Jan-22 23:33N 55°01' W 005°13'3 1.3
2017-Jan-22 21:27N 55°02' W 005°08'1618.0
2017-Jan-22 20:33N 54°55' W 005°34'9 9.0
2017-Jan-22 19:33N 54°51' W 005°48'0 0.0
2017-Jan-22 18:34N 54°51' W 005°48'1515.0
2017-Jan-22 17:33N 54°58' W 005°25'1413.7
2017-Jan-22 16:33N 54°58' W 005°01'0 0.2
2017-Jan-22 15:33N 54°58' W 005°01'6 4.9
2017-Jan-22 14:26N 55°02' W 005°08'1617.9
2017-Jan-22 13:34N 54°55' W 005°33'10 9.7
2017-Jan-22 12:33N 54°51' W 005°48'0 0.0
2017-Jan-22 11:33N 54°51' W 005°48'0 0.0
2017-Jan-22 10:33N 54°51' W 005°48'0 0.0
2017-Jan-22 09:33N 54°51' W 005°48'1212.1
2017-Jan-22 08:34N 54°57' W 005°29'1514.3
2017-Jan-22 07:29N 54°59' W 005°03'2 2.0
2017-Jan-22 06:32N 54°58' W 005°01'0 0.0
2017-Jan-22 05:32N 54°58' W 005°01'0 0.0
2017-Jan-22 04:26N 54°58' W 005°01'0 0.0
2017-Jan-22 03:32N 54°58' W 005°01'0 0.0
2017-Jan-22 02:29N 54°58' W 005°01'0 0.0
2017-Jan-22 01:29N 54°58' W 005°01'0 0.0
2017-Jan-22 00:32N 54°58' W 005°01'0 0.0
2017-Jan-21 23:32N 54°58' W 005°01'0 0.0
2017-Jan-21 22:29N 54°58' W 005°01'9 9.9
2017-Jan-21 21:34N 54°59' W 005°17'1818.0
2017-Jan-21 20:34N 54°52' W 005°46'2 1.9
2017-Jan-21 19:31N 54°51' W 005°48'0 0.0
2017-Jan-21 18:33N 54°51' W 005°48'1211.4
2017-Jan-21 17:29N 54°57' W 005°29'1516.0
2017-Jan-21 16:32N 54°59' W 005°03'2 2.2
2017-Jan-21 15:33N 54°58' W 005°01'1110.6
2017-Jan-21 14:33N 54°58' W 005°19'1817.7
2017-Jan-21 13:33N 54°51' W 005°48'0 0.4
2017-Jan-21 12:33N 54°51' W 005°48'1212.1
2017-Jan-21 11:33N 54°57' W 005°30'1615.7
2017-Jan-21 10:33N 54°59' W 005°03'2 1.6
2017-Jan-21 09:34N 54°58' W 005°01'1010.2
2017-Jan-21 08:33N 54°59' W 005°19'1816.9
2017-Jan-21 07:30N 54°52' W 005°47'1 1.0
2017-Jan-21 06:31N 54°51' W 005°48'5 5.4
2017-Jan-21 05:34N 54°53' W 005°40'1817.7
2017-Jan-21 04:34N 55°01' W 005°12'7 7.3
2017-Jan-21 03:32N 54°58' W 005°01'0 0.0
2017-Jan-21 02:29N 54°58' W 005°01'5 5.0
2017-Jan-21 01:29N 55°02' W 005°06'1617.5
2017-Jan-21 00:33N 54°55' W 005°32'10 9.8
2017-Jan-20 23:33N 54°51' W 005°48'0 0.0
2017-Jan-20 22:33N 54°51' W 005°48'4 4.0
2017-Jan-20 21:34N 54°53' W 005°42'1716.9
2017-Jan-20 20:33N 55°00' W 005°16'9 8.9
2017-Jan-20 19:34N 54°58' W 005°01'0 0.0
2017-Jan-20 18:33N 54°58' W 005°01'9 8.9
2017-Jan-20 17:33N 55°00' W 005°16'1818.4
2017-Jan-20 16:33N 54°52' W 005°45'2 2.3
2017-Jan-20 15:33N 54°51' W 005°48'1312.7
2017-Jan-20 14:33N 54°58' W 005°29'1514.9
2017-Jan-20 13:33N 54°59' W 005°03'2 1.8
2017-Jan-20 12:33N 54°58' W 005°01'1110.7
2017-Jan-20 11:33N 54°59' W 005°19'1817.8
2017-Jan-20 10:34N 54°51' W 005°48'1 0.7
2017-Jan-20 09:33N 54°51' W 005°48'1313.5
2017-Jan-20 08:33N 54°58' W 005°28'1514.5
2017-Jan-20 07:33N 54°59' W 005°03'2 1.6
2017-Jan-20 06:33N 54°58' W 005°01'5 4.7
2017-Jan-20 05:30N 55°02' W 005°06'1717.5
2017-Jan-20 04:33N 54°55' W 005°32'10 9.9
2017-Jan-20 03:33N 54°51' W 005°48'0 0.0
2017-Jan-20 02:30N 54°51' W 005°48'5 5.5
2017-Jan-20 01:33N 54°54' W 005°40'1817.7
2017-Jan-20 00:33N 55°02' W 005°13'8 7.2
2017-Jan-19 23:28N 54°58' W 005°01'0 0.0
2017-Jan-19 22:04N 54°58' W 005°01'610.5
2017-Jan-19 21:29N 55°01' W 005°09'1718.9
2017-Jan-19 20:33N 54°54' W 005°37'7 7.1
2017-Jan-19 19:33N 54°51' W 005°48'0 0.0
2017-Jan-19 18:33N 54°51' W 005°48'1313.1
2017-Jan-19 17:33N 54°57' W 005°28'1514.6
2017-Jan-19 16:33N 54°59' W 005°02'1 1.2
2017-Jan-19 15:26N 54°58' W 005°01'1011.8
2017-Jan-19 14:33N 54°58' W 005°19'1818.1
2017-Jan-19 13:33N 54°51' W 005°48'0 0.4
2017-Jan-19 12:33N 54°51' W 005°48'1413.6
2017-Jan-19 11:33N 54°57' W 005°27'1414.5
2017-Jan-19 10:33N 54°58' W 005°02'1 0.9
2017-Jan-19 09:31N 54°58' W 005°01'1010.8
2017-Jan-19 08:33N 54°59' W 005°19'1817.6
2017-Jan-19 07:34N 54°52' W 005°47'1 1.3
2017-Jan-19 06:33N 54°51' W 005°48'6 6.0
2017-Jan-19 05:33N 54°54' W 005°39'1817.6
2017-Jan-19 04:32N 55°02' W 005°11'7 7.0
2017-Jan-19 03:33N 54°58' W 005°01'0 0.0
2017-Jan-19 02:33N 54°58' W 005°01'5 4.8
2017-Jan-19 01:31N 55°02' W 005°07'1819.0
2017-Jan-19 00:33N 54°54' W 005°36'8 7.9
2017-Jan-18 23:33N 54°51' W 005°48'0 0.0
2017-Jan-18 22:33N 54°51' W 005°48'6 5.8
2017-Jan-18 21:31N 54°54' W 005°39'1717.6
2017-Jan-18 20:34N 55°01' W 005°12'7 7.0
2017-Jan-18 19:30N 54°58' W 005°01'0 0.3
2017-Jan-18 18:33N 54°58' W 005°01'1616.4
2017-Jan-18 17:33N 54°56' W 005°30'1211.6
2017-Jan-18 16:33N 54°51' W 005°48'0 0.0
2017-Jan-18 15:34N 54°51' W 005°48'1312.8
2017-Jan-18 14:34N 54°57' W 005°28'1514.6
2017-Jan-18 13:33N 54°59' W 005°03'2 2.0
2017-Jan-18 12:32N 54°58' W 005°01'10 9.9
2017-Jan-18 11:34N 54°59' W 005°18'1818.3
2017-Jan-18 10:33N 54°52' W 005°47'1 1.0
2017-Jan-18 09:33N 54°51' W 005°48'1413.5
2017-Jan-18 08:33N 54°58' W 005°28'1514.7
2017-Jan-18 07:33N 54°59' W 005°02'1 1.2
2017-Jan-18 06:33N 54°58' W 005°01'5 4.9
2017-Jan-18 05:33N 55°02' W 005°06'1717.4
2017-Jan-18 04:33N 54°56' W 005°34'9 9.3
2017-Jan-18 03:33N 54°51' W 005°48'0 0.0
2017-Jan-18 02:34N 54°51' W 005°48'5 5.0
2017-Jan-18 01:33N 54°54' W 005°41'1918.3
2017-Jan-18 00:32N 55°01' W 005°11'7 7.0
2017-Jan-17 23:33N 54°58' W 005°01'0 0.0
2017-Jan-17 22:31N 54°58' W 005°01'5 4.9
2017-Jan-17 21:32N 55°02' W 005°06'1919.2
2017-Jan-17 20:33N 54°54' W 005°36'7 7.4
2017-Jan-17 19:33N 54°51' W 005°48'0 0.0
2017-Jan-17 18:32N 54°51' W 005°48'1212.5
2017-Jan-17 17:34N 54°57' W 005°29'1614.7
2017-Jan-17 16:30N 54°59' W 005°02'1 1.3
2017-Jan-17 15:25N 54°58' W 005°01'1011.6
2017-Jan-17 14:33N 54°59' W 005°18'1817.6
2017-Jan-17 13:30N 54°51' W 005°48'1 0.7
2017-Jan-17 12:33N 54°51' W 005°48'1413.8
2017-Jan-17 11:33N 54°57' W 005°27'1414.3
2017-Jan-17 10:33N 54°58' W 005°02'1 0.5
2017-Jan-17 09:26N 54°58' W 005°01'1011.5
2017-Jan-17 08:34N 54°59' W 005°18'1917.9
2017-Jan-17 07:31N 54°51' W 005°48'0 0.2
2017-Jan-17 06:33N 54°51' W 005°48'3 3.0
2017-Jan-17 05:33N 54°53' W 005°44'1919.3
2017-Jan-17 04:34N 55°01' W 005°14'8 7.9
2017-Jan-17 03:33N 54°58' W 005°01'0 0.0
2017-Jan-17 02:33N 54°58' W 005°01'5 4.9
2017-Jan-17 01:31N 55°02' W 005°07'1819.3
2017-Jan-17 00:34N 54°54' W 005°36'8 7.5
2017-Jan-16 23:33N 54°51' W 005°48'0 0.0
2017-Jan-16 22:33N 54°51' W 005°48'6 5.6
2017-Jan-16 21:34N 54°54' W 005°40'1817.7
2017-Jan-16 20:33N 55°01' W 005°12'7 6.6
2017-Jan-16 19:28N 54°58' W 005°01'0 0.0
2017-Jan-16 18:33N 54°58' W 005°01'1111.1
2017-Jan-16 17:33N 54°58' W 005°20'1717.4
2017-Jan-16 16:34N 54°51' W 005°48'0 0.1
2017-Jan-16 15:33N 54°51' W 005°48'1313.0
2017-Jan-16 14:33N 54°58' W 005°29'1514.7
2017-Jan-16 13:32N 54°59' W 005°03'2 1.7
2017-Jan-16 12:33N 54°58' W 005°01'1010.5
2017-Jan-16 11:33N 54°58' W 005°19'1817.8
2017-Jan-16 10:33N 54°51' W 005°48'0 0.2
2017-Jan-16 09:33N 54°51' W 005°48'1414.1
2017-Jan-16 08:34N 54°58' W 005°26'1313.4
2017-Jan-16 07:33N 54°59' W 005°03'2 1.8
2017-Jan-16 06:32N 54°58' W 005°01'5 5.0
2017-Jan-16 05:32N 55°01' W 005°07'1717.9
2017-Jan-16 04:33N 54°54' W 005°34'9 8.2
2017-Jan-16 03:31N 54°51' W 005°48'0 0.0
2017-Jan-16 02:32N 54°51' W 005°48'0 0.0
2017-Jan-16 01:33N 54°51' W 005°48'5 5.1
2017-Jan-16 00:33N 54°54' W 005°41'1917.8
2017-Jan-15 23:29N 55°01' W 005°10'6 6.8
2017-Jan-15 22:32N 54°58' W 005°01'6 5.7
2017-Jan-15 21:27N 55°02' W 005°09'1617.5
2017-Jan-15 20:33N 54°55' W 005°34'9 8.9
2017-Jan-15 19:33N 54°51' W 005°48'0 0.0
2017-Jan-15 18:33N 54°51' W 005°48'1212.1
2017-Jan-15 17:33N 54°57' W 005°30'1515.0
2017-Jan-15 16:32N 54°59' W 005°03'2 1.9
2017-Jan-15 15:33N 54°58' W 005°01'5 4.9
2017-Jan-15 14:27N 55°02' W 005°08'1617.8
2017-Jan-15 13:33N 54°55' W 005°33'10 8.5
2017-Jan-15 12:25N 54°51' W 005°48'0 0.0
2017-Jan-15 11:31N 54°51' W 005°48'0 0.0
2017-Jan-15 10:28N 54°51' W 005°48'0 0.0
2017-Jan-15 09:33N 54°51' W 005°48'1313.4
2017-Jan-15 08:33N 54°57' W 005°28'1514.6
2017-Jan-15 07:33N 54°59' W 005°02'1 1.2
2017-Jan-15 06:33N 54°58' W 005°01'0 0.0
2017-Jan-15 05:33N 54°58' W 005°01'0 0.0
2017-Jan-15 04:33N 54°58' W 005°01'0 0.0
2017-Jan-15 03:33N 54°58' W 005°01'0 0.0
2017-Jan-15 02:33N 54°58' W 005°01'0 0.0
2017-Jan-15 01:33N 54°58' W 005°01'0 0.0
2017-Jan-15 00:33N 54°58' W 005°01'0 0.0
2017-Jan-14 23:33N 54°58' W 005°01'0 0.0
2017-Jan-14 22:26N 54°58' W 005°01'6 7.0
2017-Jan-14 21:32N 55°01' W 005°10'1818.8
2017-Jan-14 20:33N 54°53' W 005°39'6 5.6
2017-Jan-14 19:33N 54°51' W 005°48'0 0.0
2017-Jan-14 18:33N 54°51' W 005°48'1111.4
2017-Jan-14 17:33N 54°57' W 005°31'1615.8
2017-Jan-14 16:31N 54°59' W 005°03'1 1.5
2017-Jan-14 15:32N 54°58' W 005°01'1010.6
2017-Jan-14 14:33N 54°59' W 005°19'1817.7
2017-Jan-14 13:33N 54°52' W 005°47'1 1.0
2017-Jan-14 12:34N 54°51' W 005°48'1313.5
2017-Jan-14 11:33N 54°58' W 005°28'1514.6
2017-Jan-14 10:34N 54°59' W 005°02'1 1.1
2017-Jan-14 09:33N 54°58' W 005°01'1010.0
2017-Jan-14 08:34N 54°59' W 005°18'1717.0
2017-Jan-14 07:32N 54°52' W 005°46'2 1.5
2017-Jan-14 06:27N 54°51' W 005°48'3 3.6
2017-Jan-14 05:33N 54°53' W 005°43'1919.0
2017-Jan-14 04:33N 55°01' W 005°14'8 7.9
2017-Jan-14 03:33N 54°58' W 005°01'28 7.0
2017-Jan-13 23:33N 54°51' W 005°48'0 0.0
2017-Jan-13 22:33N 54°51' W 005°48'5 4.8
2017-Jan-13 21:32N 54°54' W 005°41'2316.7
2017-Jan-13 20:11N 54°59' W 005°03'2 2.5
2017-Jan-13 19:32N 54°58' W 005°01'1 0.6
2017-Jan-13 18:34N 54°58' W 005°02'1615.8
2017-Jan-13 17:33N 54°56' W 005°29'1212.0
2017-Jan-13 16:33N 54°51' W 005°48'  

Dump ship's entire track history